createdAt,value
2023-02-03T00:00:04.967Z,100980.91
2023-02-03T00:01:06.774Z,100979.17
2023-02-03T00:02:08.624Z,100975.76
2023-02-03T00:03:10.396Z,100981.81
2023-02-03T00:04:12.183Z,100981.81
2023-02-03T00:05:13.982Z,100978.33
2023-02-03T00:06:15.779Z,100982.68
2023-02-03T00:07:17.625Z,100980.91
2023-02-03T00:08:19.417Z,100986.96
2023-02-03T00:09:21.240Z,100980.91
2023-02-03T00:10:23.354Z,100981.75
2023-02-03T00:11:25.139Z,100990.34
2023-02-03T00:12:26.974Z,100982.55
2023-02-03T00:14:58.550Z,100980.60
2023-02-03T00:16:00.350Z,100980.04
2023-02-03T00:17:02.304Z,100985.13
2023-02-03T00:18:04.157Z,100986.83
2023-02-03T00:19:05.952Z,100981.69
2023-02-03T00:20:07.947Z,100979.05
2023-02-03T00:21:10.288Z,100978.14
2023-02-03T00:22:12.104Z,100991.02
2023-02-03T00:23:13.944Z,100987.58
2023-02-03T00:24:15.751Z,100989.28
2023-02-03T00:25:17.791Z,100992.66
2023-02-03T00:26:19.692Z,100981.49
2023-02-03T00:27:21.498Z,100983.17
2023-02-03T00:28:23.347Z,100984.94
2023-02-03T00:29:25.140Z,100985.74
2023-02-03T00:30:28.167Z,100990.95
2023-02-03T00:31:30.339Z,100986.64
2023-02-03T00:32:32.241Z,100990.02
2023-02-03T00:33:34.196Z,100983.17
2023-02-03T00:34:36.001Z,100990.02
2023-02-03T00:35:37.804Z,100979.72
2023-02-03T00:36:41.374Z,100988.25
2023-02-03T00:37:43.237Z,100985.67
2023-02-03T00:38:45.068Z,100984.81
2023-02-03T00:39:46.849Z,100989.96
2023-02-03T00:40:48.748Z,100989.09
2023-02-03T00:41:50.553Z,100982.17
2023-02-03T00:42:52.356Z,100980.41
2023-02-03T00:43:54.203Z,100988.12
2023-02-03T00:44:55.985Z,100982.98
2023-02-03T00:45:57.846Z,100984.69
2023-02-03T00:46:59.789Z,100989.77
2023-02-03T00:48:01.587Z,100989.77
2023-02-03T00:49:03.957Z,100988.80
2023-02-03T00:50:06.176Z,100990.57
2023-02-03T00:51:08.526Z,100981.08
2023-02-03T00:52:10.353Z,100981.02
2023-02-03T00:53:12.164Z,100987.06
2023-02-03T00:54:14.016Z,100983.59
2023-02-03T00:55:15.825Z,100980.95
2023-02-03T00:56:17.735Z,100981.79
2023-02-03T00:57:19.548Z,100986.94
2023-02-03T00:58:21.364Z,100982.59
2023-02-03T00:59:23.202Z,100980.82
2023-02-03T01:00:25.239Z,100985.10
2023-02-03T01:01:27.192Z,100985.91
2023-02-03T01:02:29.070Z,100983.27
2023-02-03T01:03:30.920Z,100982.39
2023-02-03T01:04:32.765Z,100984.10
2023-02-03T01:05:34.580Z,100983.20
2023-02-03T01:06:36.464Z,100982.33
2023-02-03T01:07:38.281Z,100983.20
2023-02-03T01:08:40.067Z,100980.63
2023-02-03T01:09:41.919Z,100984.10
2023-02-03T01:10:43.919Z,100977.19
2023-02-03T01:11:45.805Z,100973.61
2023-02-03T01:12:47.617Z,100976.31
2023-02-03T01:13:49.416Z,100979.70
2023-02-03T01:14:51.265Z,100971.97
2023-02-03T01:15:53.069Z,100970.20
2023-02-03T01:16:55.120Z,100975.28
2023-02-03T01:17:56.920Z,100969.33
2023-02-03T01:18:58.736Z,100971.11
2023-02-03T01:20:00.595Z,100966.77
2023-02-03T01:21:02.362Z,100969.33
2023-02-03T01:22:04.171Z,100970.14
2023-02-03T01:23:05.977Z,100977.80
2023-02-03T01:24:07.774Z,100970.07
2023-02-03T01:25:10.221Z,100977.80
2023-02-03T01:26:12.136Z,100971.71
2023-02-03T01:27:14.152Z,100972.58
2023-02-03T01:28:16.060Z,100979.50
2023-02-03T01:29:17.967Z,100974.35
2023-02-03T01:30:20.211Z,100972.58
2023-02-03T01:31:22.112Z,100973.42
2023-02-03T01:32:23.911Z,100969.94
2023-02-03T01:33:25.710Z,100969.08
2023-02-03T01:34:27.522Z,100963.92
2023-02-03T01:35:29.386Z,100966.50
2023-02-03T01:36:31.292Z,100967.30
2023-02-03T01:37:33.080Z,100966.38
2023-02-03T01:38:34.901Z,100959.45
2023-02-03T01:39:36.714Z,100964.60
2023-02-03T01:40:38.551Z,100965.41
2023-02-03T01:41:40.368Z,100963.67
2023-02-03T01:42:42.211Z,100965.34
2023-02-03T01:43:44.024Z,100973.06
2023-02-03T01:44:45.833Z,100965.34
2023-02-03T01:45:48.256Z,100965.27
2023-02-03T01:46:50.429Z,100970.42
2023-02-03T01:47:52.223Z,100968.69
2023-02-03T01:48:54.026Z,100974.70
2023-02-03T01:49:55.837Z,100964.34
2023-02-03T01:50:57.883Z,100960.90
2023-02-03T01:51:59.696Z,100970.29
2023-02-03T01:53:02.087Z,100969.55
2023-02-03T01:54:03.895Z,100974.70
2023-02-03T01:55:05.697Z,100966.17
2023-02-03T01:56:07.857Z,100965.27
2023-02-03T01:57:10.251Z,100962.70
2023-02-03T01:58:12.090Z,100969.62
2023-02-03T01:59:13.883Z,100962.77
2023-02-03T02:00:16.397Z,100971.39
2023-02-03T02:01:19.693Z,100963.67
2023-02-03T02:02:23.544Z,100965.34
2023-02-03T02:03:25.299Z,100964.53
2023-02-03T02:04:27.099Z,100962.83
2023-02-03T02:05:28.904Z,100965.41
2023-02-03T02:06:30.767Z,100977.47
2023-02-03T02:07:32.552Z,100971.45
2023-02-03T02:08:34.365Z,100966.11
2023-02-03T02:09:36.160Z,100977.47
2023-02-03T02:10:38.274Z,100967.17
2023-02-03T02:11:40.115Z,100962.83
2023-02-03T02:12:41.917Z,100969.68
2023-02-03T02:13:43.786Z,100973.06
2023-02-03T02:14:45.568Z,100974.77
2023-02-03T02:15:47.442Z,100974.70
2023-02-03T02:16:51.285Z,100972.13
2023-02-03T02:17:53.099Z,100976.41
2023-02-03T02:18:54.921Z,100968.69
2023-02-03T02:19:56.736Z,100964.34
2023-02-03T02:20:58.666Z,100965.14
2023-02-03T02:22:00.519Z,100973.77
2023-02-03T02:23:02.332Z,100974.56
2023-02-03T02:24:04.138Z,100971.99
2023-02-03T02:25:05.936Z,100970.22
2023-02-03T02:26:08.135Z,100971.99
2023-02-03T02:27:09.988Z,100966.84
2023-02-03T02:28:11.836Z,100977.14
2023-02-03T02:29:13.610Z,100970.22
2023-02-03T02:30:15.511Z,100974.56
2023-02-03T02:31:17.560Z,100969.42
2023-02-03T02:32:19.522Z,100977.20
2023-02-03T02:33:21.326Z,100978.97
2023-02-03T02:34:23.130Z,100979.84
2023-02-03T02:35:24.929Z,100977.27
2023-02-03T02:36:26.732Z,100977.27
2023-02-03T02:37:28.577Z,100978.91
2023-02-03T02:38:30.380Z,100976.34
2023-02-03T02:39:32.186Z,100978.00
2023-02-03T02:40:34.089Z,100978.84
2023-02-03T02:41:35.883Z,100976.20
2023-02-03T02:42:37.739Z,100977.88
2023-02-03T02:43:40.089Z,100976.07
2023-02-03T02:44:41.933Z,100973.44
2023-02-03T02:45:43.749Z,100974.30
2023-02-03T02:46:45.628Z,100977.61
2023-02-03T02:47:47.468Z,100975.04
2023-02-03T02:48:49.271Z,100973.30
2023-02-03T02:49:51.118Z,100971.59
2023-02-03T02:50:53.006Z,100969.02
2023-02-03T02:51:54.788Z,100960.44
2023-02-03T02:52:56.625Z,100967.25
2023-02-03T02:53:58.429Z,100968.09
2023-02-03T02:55:00.242Z,100967.19
2023-02-03T02:56:02.047Z,100964.61
2023-02-03T02:57:03.834Z,100968.83
2023-02-03T02:58:05.676Z,100964.55
2023-02-03T02:59:07.509Z,100965.45
2023-02-03T03:00:10.653Z,100959.41
2023-02-03T03:01:12.472Z,100964.61
2023-02-03T03:02:14.292Z,100964.61
2023-02-03T03:03:16.180Z,100959.47
2023-02-03T03:04:17.986Z,100959.54
2023-02-03T03:05:19.789Z,100957.86
2023-02-03T03:06:21.694Z,100956.97
2023-02-03T03:07:23.497Z,100959.54
2023-02-03T03:08:25.357Z,100963.75
2023-02-03T03:09:27.147Z,100961.98
2023-02-03T03:10:29.386Z,100961.98
2023-02-03T03:11:31.217Z,100966.25
2023-02-03T03:12:33.007Z,100963.68
2023-02-03T03:13:34.854Z,100963.68
2023-02-03T03:14:36.660Z,100955.06
2023-02-03T03:15:38.487Z,100952.42
2023-02-03T03:16:40.286Z,100953.33
2023-02-03T03:17:42.086Z,100946.48
2023-02-03T03:18:43.929Z,100948.25
2023-02-03T03:19:45.845Z,100948.25
2023-02-03T03:20:47.633Z,100948.25
2023-02-03T03:21:49.438Z,100954.19
2023-02-03T03:22:52.268Z,100955.06
2023-02-03T03:23:54.149Z,100957.63
2023-02-03T03:24:55.955Z,100956.77
2023-02-03T03:25:57.754Z,100951.55
2023-02-03T03:26:59.650Z,100950.75
2023-02-03T03:28:01.502Z,100959.34
2023-02-03T03:29:03.406Z,100953.33
2023-02-03T03:30:05.313Z,100949.84
2023-02-03T03:31:07.225Z,100949.84
2023-02-03T03:32:09.162Z,100952.42
2023-02-03T03:33:10.962Z,100954.99
2023-02-03T03:34:12.807Z,100951.55
2023-02-03T03:35:14.626Z,100949.84
2023-02-03T03:36:16.433Z,100957.50
2023-02-03T03:37:18.211Z,100956.70
2023-02-03T03:38:20.017Z,100959.27
2023-02-03T03:39:21.861Z,100954.93
2023-02-03T03:40:23.802Z,100962.64
2023-02-03T03:41:25.819Z,100959.20
2023-02-03T03:42:28.381Z,100967.86
2023-02-03T03:43:30.955Z,100966.12
2023-02-03T03:44:32.784Z,100968.69
2023-02-03T03:45:34.589Z,100970.42
2023-02-03T03:46:36.729Z,100977.28
2023-02-03T03:47:38.549Z,100977.20
2023-02-03T03:48:40.379Z,100980.66
2023-02-03T03:49:42.214Z,100980.66
2023-02-03T03:50:44.111Z,100975.51
2023-02-03T03:51:45.917Z,100977.20
2023-02-03T03:52:47.722Z,100978.08
2023-02-03T03:53:49.542Z,100975.44
2023-02-03T03:54:51.400Z,100980.58
2023-02-03T03:55:53.187Z,100975.44
2023-02-03T03:56:54.984Z,100971.12
2023-02-03T03:57:56.786Z,100979.65
2023-02-03T03:58:58.606Z,100971.93
2023-02-03T04:00:00.449Z,100976.27
2023-02-03T04:01:02.263Z,100978.84
2023-02-03T04:02:04.312Z,100974.57
2023-02-03T04:03:06.299Z,100974.64
2023-02-03T04:04:08.052Z,100973.70
2023-02-03T04:05:09.877Z,100978.02
2023-02-03T04:06:12.708Z,100973.63
2023-02-03T04:07:14.494Z,100975.30
2023-02-03T04:08:16.305Z,100976.14
2023-02-03T04:09:18.171Z,100976.88
2023-02-03T04:10:20.200Z,100972.59
2023-02-03T04:11:22.015Z,100979.45
2023-02-03T04:12:23.805Z,100980.31
2023-02-03T04:13:25.603Z,100973.43
2023-02-03T04:14:27.399Z,100982.88
2023-02-03T04:15:29.251Z,100980.31
2023-02-03T04:16:31.112Z,100980.38
2023-02-03T04:17:33.073Z,100980.38
2023-02-03T04:18:34.883Z,100980.45
2023-02-03T04:19:36.693Z,100982.22
2023-02-03T04:20:38.725Z,100978.78
2023-02-03T04:21:40.737Z,100977.88
2023-02-03T04:22:42.552Z,100979.58
2023-02-03T04:23:44.340Z,100985.59
2023-02-03T04:24:46.153Z,100976.94
2023-02-03T04:25:48.009Z,100982.95
2023-02-03T04:26:49.932Z,100979.52
2023-02-03T04:27:51.774Z,100978.64
2023-02-03T04:28:53.521Z,100976.94
2023-02-03T04:29:55.315Z,100981.22
2023-02-03T04:30:57.395Z,100981.14
2023-02-03T04:31:59.183Z,100975.80
2023-02-03T04:33:01.140Z,100975.80
2023-02-03T04:34:02.948Z,100984.52
2023-02-03T04:35:04.756Z,100984.52
2023-02-03T04:36:06.973Z,100980.18
2023-02-03T04:37:08.783Z,100988.80
2023-02-03T04:38:10.605Z,100993.94
2023-02-03T04:39:12.402Z,100990.53
2023-02-03T04:40:14.907Z,100993.94
2023-02-03T04:41:16.741Z,100996.58
2023-02-03T04:42:19.131Z,100999.08
2023-02-03T04:43:20.943Z,100999.02
2023-02-03T04:44:22.740Z,100991.23
2023-02-03T04:45:24.718Z,100995.47
2023-02-03T04:46:26.694Z,100992.90
2023-02-03T04:47:28.523Z,100996.30
2023-02-03T04:48:30.547Z,100991.96
2023-02-03T04:49:32.338Z,100992.77
2023-02-03T04:50:34.149Z,100991.89
2023-02-03T04:51:36.034Z,100993.66
2023-02-03T04:52:37.874Z,100994.47
2023-02-03T04:53:39.638Z,100997.04
2023-02-03T04:54:41.477Z,100998.73
2023-02-03T04:55:43.241Z,100998.73
2023-02-03T04:56:45.086Z,101003.05
2023-02-03T04:57:46.892Z,101003.88
2023-02-03T04:58:48.693Z,101009.09
2023-02-03T04:59:50.503Z,101002.98
2023-02-03T05:00:52.449Z,100999.54
2023-02-03T05:01:54.286Z,101003.78
2023-02-03T05:02:56.129Z,101011.42
2023-02-03T05:03:59.174Z,101002.05
2023-02-03T05:05:01.000Z,101011.42
2023-02-03T05:06:02.796Z,101013.13
2023-02-03T05:07:04.651Z,101005.41
2023-02-03T05:08:06.551Z,101013.13
2023-02-03T05:09:08.369Z,101012.26
2023-02-03T05:10:10.472Z,101017.33
2023-02-03T05:11:12.301Z,101012.19
2023-02-03T05:12:14.105Z,101019.00
2023-02-03T05:13:15.909Z,101013.06
2023-02-03T05:14:17.700Z,101016.50
2023-02-03T05:15:19.500Z,101016.50
2023-02-03T05:16:21.361Z,101012.19
2023-02-03T05:17:23.262Z,101020.77
2023-02-03T05:18:25.045Z,101013.86
2023-02-03T05:19:26.963Z,101016.43
2023-02-03T05:20:29.250Z,101014.69
2023-02-03T05:21:31.177Z,101020.63
2023-02-03T05:22:33.025Z,101020.70
2023-02-03T05:23:36.664Z,101022.47
2023-02-03T05:24:38.443Z,101022.55
2023-02-03T05:25:40.266Z,101023.41
2023-02-03T05:26:42.137Z,101025.11
2023-02-03T05:27:44.013Z,101024.14
2023-02-03T05:28:45.787Z,101025.05
2023-02-03T05:29:47.595Z,101028.55
2023-02-03T05:30:49.427Z,101022.61
2023-02-03T05:31:51.435Z,101027.75
2023-02-03T05:32:53.240Z,101024.35
2023-02-03T05:33:55.052Z,101028.77
2023-02-03T05:34:56.901Z,101026.19
2023-02-03T05:35:58.712Z,101021.05
2023-02-03T05:37:00.936Z,101025.39
2023-02-03T05:38:02.763Z,101022.82
2023-02-03T05:39:04.567Z,101033.98
2023-02-03T05:40:06.683Z,101035.81
2023-02-03T05:41:08.478Z,101032.38
2023-02-03T05:42:10.289Z,101035.02
2023-02-03T05:43:12.120Z,101038.59
2023-02-03T05:44:13.922Z,101040.30
2023-02-03T05:45:15.733Z,101039.53
2023-02-03T05:46:17.730Z,101044.81
2023-02-03T05:47:19.544Z,101046.66
2023-02-03T05:48:21.437Z,101045.86
2023-02-03T05:49:23.301Z,101039.88
2023-02-03T05:50:25.677Z,101040.05
2023-02-03T05:51:27.576Z,101043.56
2023-02-03T05:52:29.387Z,101042.83
2023-02-03T05:53:31.238Z,101040.39
2023-02-03T05:54:33.076Z,101043.83
2023-02-03T05:55:34.856Z,101042.20
2023-02-03T05:56:36.776Z,101045.73
2023-02-03T05:57:38.584Z,101051.02
2023-02-03T05:58:40.433Z,101047.61
2023-02-03T05:59:42.227Z,101051.95
2023-02-03T06:00:44.346Z,101049.38
2023-02-03T06:01:46.150Z,101052.02
2023-02-03T06:02:47.935Z,101050.45
2023-02-03T06:03:50.636Z,101049.65
2023-02-03T06:04:53.142Z,101046.28
2023-02-03T06:05:54.971Z,101048.11
2023-02-03T06:06:56.769Z,101053.33
2023-02-03T06:07:58.575Z,101051.63
2023-02-03T06:09:00.440Z,101045.73
2023-02-03T06:10:02.392Z,101048.45
2023-02-03T06:11:04.190Z,101056.30
2023-02-03T06:12:06.601Z,101052.09
2023-02-03T06:13:08.404Z,101054.86
2023-02-03T06:14:10.269Z,101054.13
2023-02-03T06:15:12.083Z,101051.75
2023-02-03T06:16:14.038Z,101053.58
2023-02-03T06:17:15.778Z,101058.92
2023-02-03T06:18:17.588Z,101053.91
2023-02-03T06:19:19.462Z,101064.41
2023-02-03T06:20:21.378Z,101056.88
2023-02-03T06:21:23.539Z,101060.44
2023-02-03T06:22:25.356Z,101056.32
2023-02-03T06:23:27.145Z,101051.36
2023-02-03T06:24:29.001Z,101055.00
2023-02-03T06:25:30.800Z,101058.66
2023-02-03T06:26:32.907Z,101062.30
2023-02-03T06:27:34.706Z,101054.75
2023-02-03T06:28:36.501Z,101047.21
2023-02-03T06:29:39.481Z,101059.48
2023-02-03T06:30:41.579Z,101061.43
2023-02-03T06:31:43.528Z,101059.03
2023-02-03T06:32:45.329Z,101054.06
2023-02-03T06:33:47.113Z,101055.11
2023-02-03T06:34:50.688Z,101060.45
2023-02-03T06:35:52.527Z,101058.05
2023-02-03T06:36:54.400Z,101064.34
2023-02-03T06:37:56.210Z,101055.83
2023-02-03T06:38:58.005Z,101056.85
2023-02-03T06:39:59.840Z,101059.61
2023-02-03T06:41:01.631Z,101058.98
2023-02-03T06:42:03.437Z,101058.25
2023-02-03T06:43:05.255Z,101059.27
2023-02-03T06:44:07.042Z,101064.59
2023-02-03T06:45:08.884Z,101058.70
2023-02-03T06:46:12.562Z,101061.50
2023-02-03T06:47:14.461Z,101062.48
2023-02-03T06:48:16.238Z,101061.72
2023-02-03T06:49:18.028Z,101061.84
2023-02-03T06:50:19.938Z,101055.89
2023-02-03T06:51:21.747Z,101055.22
2023-02-03T06:52:23.614Z,101063.89
2023-02-03T06:53:25.454Z,101058.03
2023-02-03T06:54:27.243Z,101061.52
2023-02-03T06:55:29.068Z,101053.83
2023-02-03T06:56:30.979Z,101055.61
2023-02-03T06:57:32.829Z,101053.98
2023-02-03T06:58:34.617Z,101060.08
2023-02-03T06:59:36.467Z,101053.20
2023-02-03T07:00:38.280Z,101055.89
2023-02-03T07:01:40.212Z,101054.16
2023-02-03T07:02:42.112Z,101049.05
2023-02-03T07:03:43.881Z,101050.73
2023-02-03T07:04:45.693Z,101052.50
2023-02-03T07:05:47.532Z,101048.20
2023-02-03T07:06:49.452Z,101043.09
2023-02-03T07:07:51.314Z,101043.09
2023-02-03T07:08:53.112Z,101045.62
2023-02-03T07:09:54.929Z,101047.44
2023-02-03T07:10:56.777Z,101048.25
2023-02-03T07:11:58.564Z,101045.73
2023-02-03T07:13:00.366Z,101051.84
2023-02-03T07:14:02.165Z,101046.69
2023-02-03T07:15:03.979Z,101050.08
2023-02-03T07:16:05.956Z,101045.78
2023-02-03T07:17:07.748Z,101046.69
2023-02-03T07:18:09.859Z,101047.49
2023-02-03T07:19:11.645Z,101052.66
2023-02-03T07:20:13.444Z,101057.82
2023-02-03T07:21:15.330Z,101050.89
2023-02-03T07:22:17.122Z,101058.64
2023-02-03T07:23:18.946Z,101052.61
2023-02-03T07:24:21.303Z,101057.82
2023-02-03T07:25:23.099Z,101046.63
2023-02-03T07:26:25.016Z,101044.05
2023-02-03T07:27:26.809Z,101047.44
2023-02-03T07:28:28.616Z,101050.84
2023-02-03T07:29:30.426Z,101048.20
2023-02-03T07:30:32.412Z,101044.70
2023-02-03T07:31:34.380Z,101036.08
2023-02-03T07:32:36.192Z,101048.14
2023-02-03T07:33:38.011Z,101047.27
2023-02-03T07:34:39.831Z,101045.51
2023-02-03T07:35:41.630Z,101042.88
2023-02-03T07:36:43.595Z,101043.72
2023-02-03T07:37:45.386Z,101048.83
2023-02-03T07:38:47.293Z,101046.24
2023-02-03T07:39:49.093Z,101050.50
2023-02-03T07:40:51.012Z,101053.93
2023-02-03T07:41:52.857Z,101052.16
2023-02-03T07:42:54.648Z,101049.58
2023-02-03T07:43:56.446Z,101044.36
2023-02-03T07:44:58.234Z,101047.00
2023-02-03T07:46:00.039Z,101050.50
2023-02-03T07:47:01.889Z,101048.77
2023-02-03T07:48:03.687Z,101045.29
2023-02-03T07:49:05.488Z,101044.42
2023-02-03T07:50:07.585Z,101045.29
2023-02-03T07:51:09.403Z,101053.03
2023-02-03T07:52:11.247Z,101043.61
2023-02-03T07:53:13.034Z,101045.34
2023-02-03T07:54:14.908Z,101051.41
2023-02-03T07:55:16.695Z,101045.40
2023-02-03T07:56:18.496Z,101045.45
2023-02-03T07:57:20.333Z,101044.64
2023-02-03T07:58:22.123Z,101042.92
2023-02-03T07:59:23.930Z,101042.06
2023-02-03T08:00:26.217Z,101048.98
2023-02-03T08:01:28.261Z,101045.51
2023-02-03T08:02:30.145Z,101046.41
2023-02-03T08:03:31.936Z,101045.51
2023-02-03T08:04:33.800Z,101044.70
2023-02-03T08:05:35.541Z,101046.47
2023-02-03T08:06:37.458Z,101041.30
2023-02-03T08:07:39.298Z,101046.47
2023-02-03T08:08:41.099Z,101050.78
2023-02-03T08:09:42.964Z,101042.17
2023-02-03T08:10:44.868Z,101043.94
2023-02-03T08:11:46.678Z,101039.64
2023-02-03T08:12:48.521Z,101040.56
2023-02-03T08:13:50.327Z,101036.25
2023-02-03T08:14:52.190Z,101037.92
2023-02-03T08:15:54.054Z,101043.98
2023-02-03T08:16:56.003Z,101043.98
2023-02-03T08:17:57.831Z,101040.56
2023-02-03T08:18:59.635Z,101041.41
2023-02-03T08:20:01.471Z,101038.83
2023-02-03T08:21:03.232Z,101040.51
2023-02-03T08:22:05.123Z,101040.51
2023-02-03T08:23:06.980Z,101033.61
2023-02-03T08:24:08.787Z,101037.92
2023-02-03T08:25:10.649Z,101039.59
2023-02-03T08:26:14.814Z,101034.42
2023-02-03T08:27:16.693Z,101043.03
2023-02-03T08:28:18.580Z,101039.70
2023-02-03T08:29:20.403Z,101034.53
2023-02-03T08:30:22.213Z,101037.17
2023-02-03T08:31:24.111Z,101038.94
2023-02-03T08:32:26.101Z,101036.41
2023-02-03T08:33:27.991Z,101039.86
2023-02-03T08:34:29.793Z,101044.20
2023-02-03T08:35:31.589Z,101040.77
2023-02-03T08:36:34.409Z,101039.97
2023-02-03T08:37:36.210Z,101044.37
2023-02-03T08:38:38.188Z,101036.63
2023-02-03T08:39:40.015Z,101041.79
2023-02-03T08:40:41.974Z,101035.81
2023-02-03T08:41:43.775Z,101034.86
2023-02-03T08:42:45.573Z,101033.17
2023-02-03T08:43:47.438Z,101028.01
2023-02-03T08:44:49.247Z,101035.81
2023-02-03T08:45:51.227Z,101029.85
2023-02-03T08:46:53.152Z,101031.67
2023-02-03T08:47:54.945Z,101025.70
2023-02-03T08:48:56.773Z,101031.78
2023-02-03T08:49:58.570Z,101022.31
2023-02-03T08:51:00.671Z,101027.53
2023-02-03T08:52:02.494Z,101029.30
2023-02-03T08:53:04.273Z,101031.98
2023-02-03T08:54:06.153Z,101030.31
2023-02-03T08:55:07.935Z,101024.34
2023-02-03T08:56:10.116Z,101021.77
2023-02-03T08:57:11.922Z,101020.13
2023-02-03T08:58:13.726Z,101025.30
2023-02-03T08:59:15.564Z,101019.28
2023-02-03T09:00:17.356Z,101026.22
2023-02-03T09:01:19.245Z,101017.60
2023-02-03T09:02:21.087Z,101018.52
2023-02-03T09:03:22.877Z,101014.27
2023-02-03T09:04:24.864Z,101018.67
2023-02-03T09:05:26.745Z,101022.12
2023-02-03T09:06:28.635Z,101016.95
2023-02-03T09:07:30.456Z,101015.28
2023-02-03T09:08:32.259Z,101024.76
2023-02-03T09:09:34.113Z,101010.21
2023-02-03T09:10:36.015Z,101013.66
2023-02-03T09:11:37.825Z,101017.96
2023-02-03T09:12:39.634Z,101007.63
2023-02-03T09:13:41.964Z,101009.36
2023-02-03T09:14:43.841Z,101005.96
2023-02-03T09:15:45.643Z,101001.66
2023-02-03T09:16:47.600Z,101000.08
2023-02-03T09:17:49.400Z,101000.95
2023-02-03T09:18:51.189Z,101002.81
2023-02-03T09:19:53.067Z,100997.64
2023-02-03T09:20:55.262Z,101001.95
2023-02-03T09:21:57.204Z,101007.98
2023-02-03T09:22:59.174Z,101010.62
2023-02-03T09:24:00.980Z,101008.90
2023-02-03T09:25:02.833Z,101003.78
2023-02-03T09:26:04.952Z,101004.68
2023-02-03T09:27:06.852Z,101008.95
2023-02-03T09:28:08.689Z,101002.96
2023-02-03T09:29:10.480Z,101003.83
2023-02-03T09:30:12.320Z,101004.78
2023-02-03T09:31:14.245Z,101002.24
2023-02-03T09:32:16.192Z,100999.71
2023-02-03T09:33:18.013Z,101004.83
2023-02-03T09:34:19.828Z,101001.30
2023-02-03T09:35:21.669Z,101008.23
2023-02-03T09:36:23.942Z,101003.11
2023-02-03T09:37:25.808Z,101001.34
2023-02-03T09:38:27.665Z,101006.61
2023-02-03T09:39:29.476Z,101000.63
2023-02-03T09:40:32.036Z,101002.39
2023-02-03T09:41:33.861Z,100997.17
2023-02-03T09:42:35.743Z,100996.27
2023-02-03T09:43:37.538Z,100998.91
2023-02-03T09:44:39.340Z,100995.51
2023-02-03T09:45:41.267Z,100998.14
2023-02-03T09:46:43.438Z,100998.14
2023-02-03T09:47:45.256Z,100999.91
2023-02-03T09:48:47.060Z,100995.55
2023-02-03T09:49:48.861Z,100993.79
2023-02-03T09:50:51.007Z,100992.11
2023-02-03T09:51:52.817Z,100988.57
2023-02-03T09:52:54.615Z,100992.11
2023-02-03T09:53:57.525Z,100988.67
2023-02-03T09:54:59.345Z,100985.27
2023-02-03T09:56:01.201Z,100987.85
2023-02-03T09:57:03.015Z,100989.66
2023-02-03T09:58:04.829Z,100989.66
2023-02-03T09:59:06.660Z,100984.55
2023-02-03T10:00:08.770Z,100984.59
2023-02-03T10:01:10.747Z,100983.77
2023-02-03T10:02:12.624Z,100985.56
2023-02-03T10:03:14.430Z,100975.22
2023-02-03T10:04:16.236Z,100979.56
2023-02-03T10:05:18.040Z,100975.22
2023-02-03T10:06:21.407Z,100976.11
2023-02-03T10:07:23.580Z,100968.36
2023-02-03T10:08:25.452Z,100977.90
2023-02-03T10:09:27.340Z,100974.49
2023-02-03T10:10:29.466Z,100971.86
2023-02-03T10:11:31.507Z,100978.80
2023-02-03T10:12:33.305Z,100971.04
2023-02-03T10:13:36.653Z,100975.36
2023-02-03T10:14:38.836Z,100971.09
2023-02-03T10:15:40.635Z,100974.59
2023-02-03T10:16:43.499Z,100981.57
2023-02-03T10:17:47.826Z,100972.09
2023-02-03T10:18:49.529Z,100974.73
2023-02-03T10:19:51.357Z,100973.91
2023-02-03T10:20:53.599Z,100972.19
2023-02-03T10:21:55.533Z,100974.00
2023-02-03T10:22:57.362Z,100971.42
2023-02-03T10:23:59.181Z,100971.46
2023-02-03T10:25:00.981Z,100968.92
2023-02-03T10:26:02.781Z,100975.01
2023-02-03T10:27:04.621Z,100969.84
2023-02-03T10:28:06.466Z,100969.02
2023-02-03T10:29:08.289Z,100969.02
2023-02-03T10:30:10.096Z,100968.20
2023-02-03T10:31:11.970Z,100964.76
2023-02-03T10:32:13.986Z,100970.83
2023-02-03T10:33:15.855Z,100966.52
2023-02-03T10:34:17.992Z,100965.66
2023-02-03T10:35:19.808Z,100963.12
2023-02-03T10:36:22.022Z,100967.39
2023-02-03T10:37:23.874Z,100957.05
2023-02-03T10:38:25.672Z,100960.48
2023-02-03T10:39:27.941Z,100958.72
2023-02-03T10:40:30.163Z,100959.59
2023-02-03T10:41:32.065Z,100955.31
2023-02-03T10:42:33.926Z,100948.38
2023-02-03T10:43:36.853Z,100946.66
2023-02-03T10:44:38.762Z,100950.14
2023-02-03T10:45:40.661Z,100948.42
2023-02-03T10:46:42.618Z,100947.60
2023-02-03T10:47:44.535Z,100951.92
2023-02-03T10:48:46.345Z,100943.30
2023-02-03T10:49:49.271Z,100937.25
2023-02-03T10:50:51.654Z,100942.42
2023-02-03T10:51:54.014Z,100941.53
2023-02-03T10:52:55.935Z,100943.34
2023-02-03T10:53:58.337Z,100939.03
2023-02-03T10:55:00.149Z,100940.84
2023-02-03T10:56:01.962Z,100936.54
2023-02-03T10:57:03.830Z,100940.89
2023-02-03T10:58:05.658Z,100933.95
2023-02-03T10:59:07.461Z,100926.19
2023-02-03T11:00:09.731Z,100931.36
2023-02-03T11:01:11.583Z,100927.95
2023-02-03T11:02:13.470Z,100928.82
2023-02-03T11:03:15.700Z,100928.78
2023-02-03T11:04:18.089Z,100930.50
2023-02-03T11:05:20.025Z,100925.33
2023-02-03T11:06:21.824Z,100928.73
2023-02-03T11:07:23.632Z,100924.46
2023-02-03T11:08:25.466Z,100924.50
2023-02-03T11:09:27.271Z,100925.33
2023-02-03T11:10:29.400Z,100923.65
2023-02-03T11:11:31.545Z,100929.72
2023-02-03T11:12:34.617Z,100927.14
2023-02-03T11:13:36.499Z,100925.45
2023-02-03T11:14:38.297Z,100920.33
2023-02-03T11:15:40.179Z,100920.33
2023-02-03T11:16:44.361Z,100916.06
2023-02-03T11:17:45.594Z,100916.10
2023-02-03T11:18:47.436Z,100918.73
2023-02-03T11:19:49.253Z,100917.83
2023-02-03T11:20:51.266Z,100915.20
2023-02-03T11:21:53.065Z,100915.29
2023-02-03T11:22:54.866Z,100915.33
2023-02-03T11:23:56.743Z,100909.34
2023-02-03T11:24:58.512Z,100916.27
2023-02-03T11:26:00.317Z,100909.42
2023-02-03T11:27:02.130Z,100911.19
2023-02-03T11:28:03.960Z,100910.33
2023-02-03T11:29:05.865Z,100906.92
2023-02-03T11:30:08.797Z,100909.52
2023-02-03T11:31:10.680Z,100905.20
2023-02-03T11:32:12.573Z,100907.79
2023-02-03T11:33:15.013Z,100903.52
2023-02-03T11:34:16.858Z,100906.92
2023-02-03T11:35:18.655Z,100900.03
2023-02-03T11:36:20.453Z,100901.75
2023-02-03T11:37:22.252Z,100898.34
2023-02-03T11:38:24.053Z,100899.20
2023-02-03T11:39:25.916Z,100898.38
2023-02-03T11:40:28.138Z,100896.66
2023-02-03T11:41:30.115Z,100895.80
2023-02-03T11:42:31.938Z,100899.25
2023-02-03T11:43:33.728Z,100898.38
2023-02-03T11:44:35.584Z,100898.42
2023-02-03T11:45:37.405Z,100900.16
2023-02-03T11:46:39.587Z,100894.98
2023-02-03T11:47:41.337Z,100897.61